createdAt,value
2018-12-06T00:00:27.158Z,98697.95
2018-12-06T00:02:56.363Z,98694.91
2018-12-06T00:05:25.612Z,98701.42
2018-12-06T00:08:05.526Z,98701.44
2018-12-06T00:10:34.387Z,98705.33
2018-12-06T00:13:03.600Z,98712.69
2018-12-06T00:15:32.797Z,98715.29
2018-12-06T00:18:01.924Z,98721.37
2018-12-06T00:20:31.246Z,98720.52
2018-12-06T00:23:00.075Z,98727.86
2018-12-06T00:25:29.174Z,98722.66
2018-12-06T00:27:58.276Z,98713.13
2018-12-06T00:30:35.823Z,98724.84
2018-12-06T00:33:05.457Z,98710.09
2018-12-06T00:35:34.626Z,98713.55
2018-12-06T00:38:03.795Z,98726.57
2018-12-06T00:40:33.161Z,98730.84
2018-12-06T00:43:02.306Z,98732.14
2018-12-06T00:45:31.187Z,98736.47
2018-12-06T00:48:00.215Z,98737.31
2018-12-06T00:50:29.485Z,98732.08
2018-12-06T00:52:58.348Z,98735.98
2018-12-06T00:55:27.175Z,98734.22
2018-12-06T00:57:56.477Z,98735.09
2018-12-06T01:00:25.532Z,98735.09
2018-12-06T01:02:54.739Z,98737.66
2018-12-06T01:05:23.965Z,98736.39
2018-12-06T01:07:53.060Z,98735.52
2018-12-06T01:10:21.961Z,98734.22
2018-12-06T01:12:50.991Z,98729.02
2018-12-06T01:15:19.945Z,98729.05
2018-12-06T01:17:49.179Z,98727.30
2018-12-06T01:20:18.326Z,98726.42
2018-12-06T01:22:47.473Z,98720.77
2018-12-06T01:25:16.735Z,98722.06
2018-12-06T01:27:45.819Z,98720.77
2018-12-06T01:30:14.756Z,98718.16
2018-12-06T01:32:43.713Z,98720.76
2018-12-06T01:35:12.991Z,98725.95
2018-12-06T01:37:42.128Z,98723.35
2018-12-06T01:40:11.497Z,98731.57
2018-12-06T01:42:40.699Z,98727.67
2018-12-06T01:45:09.665Z,98734.59
2018-12-06T01:47:38.512Z,98732.00
2018-12-06T01:50:07.715Z,98731.61
2018-12-06T01:52:36.879Z,98726.84
2018-12-06T01:55:06.297Z,98729.44
2018-12-06T01:57:35.528Z,98717.75
2018-12-06T02:00:05.020Z,98724.70
2018-12-06T02:02:34.284Z,98726.00
2018-12-06T02:05:03.395Z,98712.97
2018-12-06T02:07:32.528Z,98717.70
2018-12-06T02:10:01.641Z,98717.70
2018-12-06T02:12:30.575Z,98715.94
2018-12-06T02:14:59.824Z,98717.24
2018-12-06T02:17:29.185Z,98717.70
2018-12-06T02:19:58.448Z,98723.31
2018-12-06T02:22:27.376Z,98717.28
2018-12-06T02:24:56.633Z,98719.00
2018-12-06T02:27:25.738Z,98717.70
2018-12-06T02:29:54.833Z,98709.02
2018-12-06T02:32:24.719Z,98717.28
2018-12-06T02:34:53.666Z,98713.80
2018-12-06T02:37:22.899Z,98707.27
2018-12-06T02:39:51.769Z,98710.33
2018-12-06T02:42:20.885Z,98713.37
2018-12-06T02:44:50.203Z,98712.96
2018-12-06T02:47:19.271Z,98710.78
2018-12-06T02:49:48.496Z,98712.55
2018-12-06T02:52:17.623Z,98709.95
2018-12-06T02:54:46.703Z,98714.72
2018-12-06T02:57:15.998Z,98706.05
2018-12-06T02:59:45.184Z,98711.66
2018-12-06T03:02:14.485Z,98711.24
2018-12-06T03:04:43.783Z,98703.03
2018-12-06T03:07:12.985Z,98704.33
2018-12-06T03:09:42.308Z,98718.20
2018-12-06T03:12:11.525Z,98711.66
2018-12-06T03:14:40.770Z,98712.55
2018-12-06T03:17:09.721Z,98716.02
2018-12-06T03:19:38.963Z,98717.32
2018-12-06T03:22:08.008Z,98719.46
2018-12-06T03:24:37.100Z,98721.64
2018-12-06T03:27:06.352Z,98716.41
2018-12-06T03:29:35.648Z,98712.04
2018-12-06T03:32:04.934Z,98713.76
2018-12-06T03:34:33.752Z,98715.94
2018-12-06T03:37:02.996Z,98710.73
2018-12-06T03:39:31.967Z,98711.98
2018-12-06T03:42:01.208Z,98715.88
2018-12-06T03:44:32.501Z,98713.28
2018-12-06T03:47:01.757Z,98709.39
2018-12-06T03:49:30.903Z,98718.90
2018-12-06T03:51:59.799Z,98715.01
2018-12-06T03:54:28.712Z,98723.68
2018-12-06T03:56:57.755Z,98721.13
2018-12-06T03:59:26.766Z,98726.33
2018-12-06T04:01:56.016Z,98729.34
2018-12-06T04:04:25.224Z,98732.83
2018-12-06T04:06:54.440Z,98730.69
2018-12-06T04:09:23.666Z,98736.77
2018-12-06T04:11:52.768Z,98737.61
2018-12-06T04:14:21.907Z,98730.70
2018-12-06T04:16:51.012Z,98727.26
2018-12-06T04:19:20.191Z,98730.73
2018-12-06T04:21:49.309Z,98726.84
2018-12-06T04:24:18.396Z,98727.26
2018-12-06T04:26:47.591Z,98729.44
2018-12-06T04:29:16.541Z,98734.59
2018-12-06T04:31:45.452Z,98735.84
2018-12-06T04:34:14.629Z,98746.70
2018-12-06T04:36:43.813Z,98743.27
2018-12-06T04:39:12.764Z,98746.28
2018-12-06T04:41:41.944Z,98744.11
2018-12-06T04:44:11.057Z,98750.59
2018-12-06T04:46:40.140Z,98748.35
2018-12-06T04:49:41.219Z,98742.69
2018-12-06T04:52:10.343Z,98752.66
2018-12-06T04:54:39.531Z,98751.76
2018-12-06T04:57:08.556Z,98748.29
2018-12-06T04:59:37.712Z,98755.66
2018-12-06T05:02:06.996Z,98753.90
2018-12-06T05:04:36.479Z,98754.35
2018-12-06T05:07:05.612Z,98761.62
2018-12-06T05:09:34.519Z,98754.72
2018-12-06T05:12:03.748Z,98758.73
2018-12-06T05:14:32.752Z,98757.43
2018-12-06T05:17:01.887Z,98757.87
2018-12-06T05:19:30.656Z,98764.34
2018-12-06T05:21:59.763Z,98766.06
2018-12-06T05:24:28.846Z,98769.55
2018-12-06T05:26:58.158Z,98775.63
2018-12-06T05:29:27.315Z,98776.58
2018-12-06T05:31:56.400Z,98773.49
2018-12-06T05:34:25.614Z,98784.66
2018-12-06T05:36:54.735Z,98776.44
2018-12-06T05:39:24.020Z,98773.86
2018-12-06T05:41:53.023Z,98787.71
2018-12-06T05:44:22.096Z,98785.97
2018-12-06T05:46:51.200Z,98783.47
2018-12-06T05:49:20.397Z,98783.06
2018-12-06T05:51:49.481Z,98789.15
2018-12-06T05:54:18.510Z,98782.59
2018-12-06T05:56:47.663Z,98786.96
2018-12-06T05:59:16.592Z,98797.84
2018-12-06T06:01:45.766Z,98791.34
2018-12-06T06:04:14.692Z,98799.13
2018-12-06T06:06:43.884Z,98799.56
2018-12-06T06:09:13.096Z,98794.83
2018-12-06T06:11:42.004Z,98800.44
2018-12-06T06:14:11.203Z,98800.38
2018-12-06T06:16:40.138Z,98793.52
2018-12-06T06:19:09.311Z,98798.27
2018-12-06T06:21:38.496Z,98802.63
2018-12-06T06:24:07.618Z,98803.92
2018-12-06T06:26:36.787Z,98805.63
2018-12-06T06:29:05.900Z,98804.75
2018-12-06T06:31:35.036Z,98805.17
2018-12-06T06:34:03.883Z,98811.66
2018-12-06T06:36:33.022Z,98813.42
2018-12-06T06:39:01.844Z,98815.98
2018-12-06T06:41:31.063Z,98815.56
2018-12-06T06:43:59.783Z,98817.32
2018-12-06T06:46:28.687Z,98817.34
2018-12-06T06:48:57.879Z,98815.20
2018-12-06T06:51:27.122Z,98819.16
2018-12-06T06:53:56.331Z,98814.42
2018-12-06T06:56:25.438Z,98816.19
2018-12-06T06:58:54.403Z,98812.34
2018-12-06T07:01:23.299Z,98810.62
2018-12-06T07:03:52.259Z,98812.83
2018-12-06T07:06:21.542Z,98814.59
2018-12-06T07:08:50.737Z,98817.22
2018-12-06T07:11:19.979Z,98815.49
2018-12-06T07:13:49.227Z,98819.84
2018-12-06T07:16:18.431Z,98818.58
2018-12-06T07:18:47.650Z,98812.48
2018-12-06T07:21:16.790Z,98804.26
2018-12-06T07:23:45.669Z,98807.30
2018-12-06T07:26:14.848Z,98807.28
2018-12-06T07:28:44.253Z,98802.53
2018-12-06T07:31:13.451Z,98804.67
2018-12-06T07:33:42.414Z,98808.98
2018-12-06T07:36:11.382Z,98799.87
2018-12-06T07:38:40.588Z,98803.32
2018-12-06T07:41:09.445Z,98803.73
2018-12-06T07:43:38.574Z,98811.97
2018-12-06T07:49:00.174Z,98806.73
2018-12-06T07:51:28.995Z,98809.36
2018-12-06T07:53:58.159Z,98812.81
2018-12-06T07:56:26.964Z,98815.39
2018-12-06T07:58:55.799Z,98813.63
2018-12-06T08:01:24.930Z,98814.84
2018-12-06T08:03:54.160Z,98815.19
2018-12-06T08:06:23.121Z,98815.62
2018-12-06T08:08:52.204Z,98820.38
2018-12-06T08:11:21.052Z,98820.80
2018-12-06T08:13:50.228Z,98821.36
2018-12-06T08:16:19.567Z,98817.49
2018-12-06T08:18:48.619Z,98816.59
2018-12-06T08:21:17.527Z,98827.87
2018-12-06T08:23:46.874Z,98820.48
2018-12-06T08:26:15.952Z,98816.99
2018-12-06T08:28:45.112Z,98813.13
2018-12-06T08:31:14.271Z,98815.26
2018-12-06T08:33:43.455Z,98814.77
2018-12-06T08:36:12.550Z,98818.19
2018-12-06T08:38:41.643Z,98819.89
2018-12-06T08:41:10.623Z,98818.53
2018-12-06T08:43:39.771Z,98822.41
2018-12-06T08:46:08.679Z,98818.49
2018-12-06T08:48:37.860Z,98820.13
2018-12-06T08:51:07.219Z,98824.85
2018-12-06T08:53:36.030Z,98821.31
2018-12-06T08:56:05.211Z,98815.22
2018-12-06T08:58:34.379Z,98810.80
2018-12-06T09:01:03.530Z,98811.25
2018-12-06T09:03:32.524Z,98808.08
2018-12-06T09:06:01.828Z,98813.55
2018-12-06T09:08:30.933Z,98809.45
2018-12-06T09:10:59.999Z,98811.47
2018-12-06T09:13:29.144Z,98810.02
2018-12-06T09:15:57.987Z,98810.41
2018-12-06T09:18:27.104Z,98803.91
2018-12-06T09:20:56.196Z,98801.34
2018-12-06T09:23:25.291Z,98797.83
2018-12-06T09:25:54.031Z,98801.38
2018-12-06T09:28:23.340Z,98801.84
2018-12-06T09:30:52.376Z,98798.48
2018-12-06T09:33:21.536Z,98792.45
2018-12-06T09:35:50.379Z,98788.29
2018-12-06T09:38:19.540Z,98792.81
2018-12-06T09:40:48.804Z,98785.38
2018-12-06T09:43:17.829Z,98781.02
2018-12-06T09:45:47.055Z,98783.25
2018-12-06T09:48:16.238Z,98778.88
2018-12-06T09:50:45.424Z,98782.52
2018-12-06T09:53:14.669Z,98776.48
2018-12-06T09:55:43.448Z,98778.05
2018-12-06T09:58:12.482Z,98778.01
2018-12-06T10:00:41.293Z,98774.77
2018-12-06T10:03:10.197Z,98766.55
2018-12-06T10:05:39.176Z,98768.05
2018-12-06T10:08:08.053Z,98762.86
2018-12-06T10:10:37.003Z,98761.20
2018-12-06T10:13:05.923Z,98758.87
2018-12-06T10:15:34.886Z,98746.58
2018-12-06T10:18:03.724Z,98735.93
2018-12-06T10:20:32.680Z,98735.19
2018-12-06T10:23:01.507Z,98739.52
2018-12-06T10:25:30.374Z,98733.13
2018-12-06T10:27:59.198Z,98729.64
2018-12-06T10:30:28.049Z,98729.91
2018-12-06T10:32:56.967Z,98724.11
2018-12-06T10:35:25.932Z,98711.09
2018-12-06T10:37:54.739Z,98717.75
2018-12-06T10:40:23.610Z,98712.13
2018-12-06T10:42:52.540Z,98715.25
2018-12-06T10:45:21.458Z,98711.04
2018-12-06T10:47:50.574Z,98701.64
2018-12-06T10:50:19.412Z,98708.05
2018-12-06T10:52:48.381Z,98697.17
2018-12-06T10:55:18.352Z,98692.97
2018-12-06T10:57:47.476Z,98688.44
2018-12-06T11:00:21.371Z,98691.52
2018-12-06T11:02:52.496Z,98698.09
2018-12-06T11:05:21.651Z,98685.44
2018-12-06T11:07:50.906Z,98690.58
2018-12-06T11:10:19.744Z,98680.59
2018-12-06T11:12:48.741Z,98677.44
2018-12-06T11:15:17.575Z,98674.91
2018-12-06T11:17:46.482Z,98672.80
2018-12-06T11:20:15.472Z,98671.70
2018-12-06T11:22:44.466Z,98672.44
2018-12-06T11:25:13.480Z,98673.09
2018-12-06T11:27:42.320Z,98674.87
2018-12-06T11:30:11.636Z,98672.15
2018-12-06T11:32:40.525Z,98668.05
2018-12-06T11:35:09.455Z,98665.09
2018-12-06T11:37:38.288Z,98674.18
2018-12-06T11:40:07.258Z,98670.38
2018-12-06T11:42:36.162Z,98664.41
2018-12-06T11:45:05.906Z,98656.32
2018-12-06T11:47:34.797Z,98654.45
2018-12-06T11:50:03.687Z,98656.32
2018-12-06T11:52:32.544Z,98652.96
2018-12-06T11:55:01.468Z,98654.70
2018-12-06T11:57:30.427Z,98649.56
2018-12-06T11:59:59.269Z,98642.96
2018-12-06T12:02:28.167Z,98646.78
2018-12-06T12:04:57.026Z,98648.53
2018-12-06T12:07:25.941Z,98642.22
2018-12-06T12:09:54.854Z,98638.64
2018-12-06T12:12:23.727Z,98636.28
2018-12-06T12:14:52.736Z,98635.55
2018-12-06T12:17:21.590Z,98640.98
2018-12-06T12:19:50.467Z,98641.61
2018-12-06T12:22:19.461Z,98638.63
2018-12-06T12:24:48.442Z,98637.95
2018-12-06T12:27:17.359Z,98640.90
2018-12-06T12:29:46.364Z,98644.84
2018-12-06T12:32:15.223Z,98644.25
2018-12-06T12:34:44.012Z,98637.67
2018-12-06T12:37:12.867Z,98641.78
2018-12-06T12:39:41.827Z,98637.51
2018-12-06T12:42:10.863Z,98633.56
2018-12-06T12:44:39.775Z,98637.45
2018-12-06T12:47:08.706Z,98637.20
2018-12-06T12:49:37.556Z,98635.98
2018-12-06T12:52:06.369Z,98635.84
2018-12-06T12:54:35.541Z,98630.45
2018-12-06T12:57:04.417Z,98625.92
2018-12-06T12:59:33.362Z,98630.09
2018-12-06T13:02:02.349Z,98625.50
2018-12-06T13:04:31.228Z,98623.92
2018-12-06T13:07:12.175Z,98618.00
2018-12-06T13:09:41.092Z,98623.08
2018-12-06T13:12:09.910Z,98619.08
2018-12-06T13:14:38.884Z,98617.70
2018-12-06T13:17:07.755Z,98616.54
2018-12-06T13:19:36.726Z,98621.84
2018-12-06T13:22:05.617Z,98618.39
2018-12-06T13:24:34.481Z,98619.08
2018-12-06T13:27:03.499Z,98620.92
2018-12-06T13:29:32.469Z,98626.39
2018-12-06T13:32:01.328Z,98625.62
2018-12-06T13:34:30.167Z,98632.31
2018-12-06T13:36:58.954Z,98630.77
2018-12-06T13:39:27.937Z,98629.50
2018-12-06T13:41:56.750Z,98634.17
2018-12-06T13:44:25.665Z,98630.92
2018-12-06T13:46:54.592Z,98626.95
2018-12-06T13:49:23.405Z,98631.21
2018-12-06T13:51:52.416Z,98631.78
2018-12-06T13:54:26.975Z,98627.69
2018-12-06T13:56:52.711Z,98631.42
2018-12-06T13:59:21.525Z,98633.27
2018-12-06T14:01:50.488Z,98627.08
2018-12-06T14:04:19.407Z,98622.55
2018-12-06T14:06:48.171Z,98616.49
2018-12-06T14:09:17.264Z,98614.70
2018-12-06T14:11:46.572Z,98622.70
2018-12-06T14:14:15.531Z,98614.66
2018-12-06T14:16:44.780Z,98617.41
2018-12-06T14:19:13.963Z,98613.13
2018-12-06T14:21:43.252Z,98617.34
2018-12-06T14:24:12.469Z,98613.98
2018-12-06T14:26:41.742Z,98620.63
2018-12-06T14:29:10.500Z,98620.19
2018-12-06T14:31:39.693Z,98618.69
2018-12-06T14:34:08.871Z,98618.41
2018-12-06T14:36:38.108Z,98618.49
2018-12-06T14:39:09.564Z,98617.70
2018-12-06T14:41:38.775Z,98616.39
2018-12-06T14:44:07.889Z,98612.11
2018-12-06T14:46:37.003Z,98618.59
2018-12-06T14:49:05.898Z,98612.10
2018-12-06T14:51:35.104Z,98615.10
2018-12-06T14:54:04.552Z,98624.19
2018-12-06T14:56:33.695Z,98634.57
2018-12-06T14:59:02.839Z,98635.88
2018-12-06T15:01:31.908Z,98632.80
2018-12-06T15:04:01.263Z,98633.14
2018-12-06T15:06:37.382Z,98635.35
2018-12-06T15:09:01.342Z,98637.95
2018-12-06T15:11:30.378Z,98641.34
2018-12-06T15:13:59.507Z,98641.23
2018-12-06T15:16:28.755Z,98639.05
2018-12-06T15:18:57.904Z,98642.94
2018-12-06T15:21:26.857Z,98640.69
2018-12-06T15:23:56.053Z,98643.67
2018-12-06T15:26:25.218Z,98644.97
2018-12-06T15:28:54.297Z,98653.09
2018-12-06T15:31:23.471Z,98659.47
2018-12-06T15:33:52.455Z,98662.47
2018-12-06T15:36:21.341Z,98664.34
2018-12-06T15:38:50.304Z,98667.75
2018-12-06T15:41:19.367Z,98662.50
2018-12-06T15:43:48.484Z,98662.96
2018-12-06T15:49:00.787Z,98673.65
2018-12-06T15:51:29.859Z,98673.19
2018-12-06T15:53:59.019Z,98669.30
2018-12-06T15:56:28.146Z,98675.25
2018-12-06T15:58:57.168Z,98683.90
2018-12-06T16:01:26.249Z,98682.01
2018-12-06T16:03:55.280Z,98682.68
2018-12-06T16:06:24.480Z,98681.30
2018-12-06T16:08:53.728Z,98682.56
2018-12-06T16:11:22.868Z,98682.52
2018-12-06T16:13:52.029Z,98683.41
2018-12-06T16:16:21.368Z,98684.11
2018-12-06T16:18:50.954Z,98693.17
2018-12-06T16:21:20.124Z,98694.82
2018-12-06T16:23:49.239Z,98696.39
2018-12-06T16:26:18.416Z,98701.89
2018-12-06T16:28:47.603Z,98700.06
2018-12-06T16:31:16.763Z,98706.89
2018-12-06T16:33:45.999Z,98710.75
2018-12-06T16:36:15.214Z,98712.37
2018-12-06T16:38:43.962Z,98712.73
2018-12-06T16:41:13.169Z,98710.52
2018-12-06T16:43:42.307Z,98715.63
2018-12-06T16:46:11.884Z,98716.05
2018-12-06T16:48:41.096Z,98714.73
2018-12-06T16:51:10.183Z,98714.77
2018-12-06T16:53:38.995Z,98721.09
2018-12-06T16:56:08.217Z,98724.03
2018-12-06T16:58:37.250Z,98725.69
2018-12-06T17:01:06.496Z,98726.00
2018-12-06T17:03:35.295Z,98728.59
2018-12-06T17:06:04.337Z,98732.11
2018-12-06T17:08:33.488Z,98736.03
2018-12-06T17:11:02.447Z,98739.83
2018-12-06T17:13:31.456Z,98743.59
2018-12-06T17:16:00.540Z,98756.09
2018-12-06T17:18:29.767Z,98757.07
2018-12-06T17:20:59.051Z,98761.83
2018-12-06T17:23:28.256Z,98768.31
2018-12-06T17:25:57.413Z,98771.69
2018-12-06T17:28:26.309Z,98775.55
2018-12-06T17:30:55.387Z,98771.60
2018-12-06T17:33:24.583Z,98771.91
2018-12-06T17:35:53.748Z,98778.45
2018-12-06T17:38:22.971Z,98781.02
2018-12-06T17:40:52.081Z,98782.15
2018-12-06T17:43:20.918Z,98774.86
2018-12-06T17:45:50.005Z,98782.17
2018-12-06T17:48:18.982Z,98784.76
2018-12-06T17:50:47.881Z,98794.70
2018-12-06T17:53:17.135Z,98798.98
2018-12-06T17:55:56.547Z,98794.50
2018-12-06T17:58:25.566Z,98794.19
2018-12-06T18:00:55.148Z,98798.68
2018-12-06T18:03:25.470Z,98797.70
2018-12-06T18:05:54.332Z,98800.70
2018-12-06T18:08:23.157Z,98796.45
2018-12-06T18:10:52.356Z,98794.03
2018-12-06T18:13:21.491Z,98797.00
2018-12-06T18:15:51.463Z,98793.83
2018-12-06T18:18:20.646Z,98795.50
2018-12-06T18:20:49.990Z,98798.98
2018-12-06T18:23:19.045Z,98800.67
2018-12-06T18:25:48.162Z,98803.67
2018-12-06T18:28:17.217Z,98804.13
2018-12-06T18:30:47.099Z,98810.02
2018-12-06T18:33:16.503Z,98807.84
2018-12-06T18:35:45.667Z,98808.75
2018-12-06T18:38:14.926Z,98804.47
2018-12-06T18:40:44.005Z,98805.27
2018-12-06T18:43:12.924Z,98806.50
2018-12-06T18:45:41.743Z,98804.83
2018-12-06T18:48:10.703Z,98803.81
2018-12-06T18:50:39.632Z,98802.77
2018-12-06T18:53:08.484Z,98803.63
2018-12-06T18:55:37.715Z,98797.47
2018-12-06T18:58:06.854Z,98795.11
2018-12-06T19:00:36.073Z,98801.72
2018-12-06T19:03:05.379Z,98799.71
2018-12-06T19:05:34.408Z,98804.11
2018-12-06T19:08:03.292Z,98806.30
2018-12-06T19:10:32.494Z,98805.40
2018-12-06T19:13:01.580Z,98800.84
2018-12-06T19:15:30.856Z,98801.09
2018-12-06T19:18:00.232Z,98802.00
2018-12-06T19:20:29.290Z,98813.38
2018-12-06T19:22:58.437Z,98807.00
2018-12-06T19:25:27.253Z,98800.08
2018-12-06T19:27:56.453Z,98796.84
2018-12-06T19:30:25.812Z,98794.50
2018-12-06T19:32:57.870Z,98796.56
2018-12-06T19:35:25.941Z,98789.83
2018-12-06T19:37:55.043Z,98789.89
2018-12-06T19:40:23.972Z,98784.09
2018-12-06T19:42:52.942Z,98789.36
2018-12-06T19:45:21.801Z,98790.55
2018-12-06T19:47:50.855Z,98803.10
2018-12-06T19:50:19.956Z,98809.14
2018-12-06T19:52:49.111Z,98814.61
2018-12-06T19:55:19.423Z,98815.25
2018-12-06T19:57:48.710Z,98820.66
2018-12-06T20:00:18.124Z,98825.95
2018-12-06T20:02:46.967Z,98828.66
2018-12-06T20:05:15.886Z,98829.28
2018-12-06T20:07:44.779Z,98827.34
2018-12-06T20:10:14.211Z,98825.49
2018-12-06T20:12:43.074Z,98842.17
2018-12-06T20:15:11.931Z,98832.23
2018-12-06T20:17:41.580Z,98824.17
2018-12-06T20:20:10.372Z,98832.20
2018-12-06T20:22:39.348Z,98837.92
2018-12-06T20:25:08.367Z,98832.80
2018-12-06T20:27:37.274Z,98843.77
2018-12-06T20:30:06.651Z,98840.02
2018-12-06T20:32:35.753Z,98848.98
2018-12-06T20:35:05.078Z,98850.19
2018-12-06T20:37:33.940Z,98855.23
2018-12-06T20:40:02.911Z,98859.07
2018-12-06T20:42:31.715Z,98856.80
2018-12-06T20:45:00.610Z,98863.63
2018-12-06T20:47:29.602Z,98864.67
2018-12-06T20:49:58.363Z,98868.92
2018-12-06T20:52:27.245Z,98874.36
2018-12-06T20:54:56.067Z,98870.02
2018-12-06T20:57:24.919Z,98874.48
2018-12-06T20:59:53.743Z,98870.68
2018-12-06T21:02:22.654Z,98873.61
2018-12-06T21:04:51.629Z,98874.40
2018-12-06T21:07:20.422Z,98869.92
2018-12-06T21:09:49.229Z,98873.54
2018-12-06T21:12:18.091Z,98864.56
2018-12-06T21:14:46.959Z,98859.34
2018-12-06T21:17:15.873Z,98867.91
2018-12-06T21:19:44.744Z,98853.30
2018-12-06T21:22:13.695Z,98861.45
2018-12-06T21:24:42.679Z,98863.50
2018-12-06T21:27:11.545Z,98868.66
2018-12-06T21:29:40.396Z,98869.00
2018-12-06T21:32:09.272Z,98869.70
2018-12-06T21:34:38.284Z,98867.16
2018-12-06T21:37:07.093Z,98869.73
2018-12-06T21:39:36.011Z,98867.16
2018-12-06T21:42:04.996Z,98867.92
2018-12-06T21:44:33.856Z,98868.23
2018-12-06T21:47:02.651Z,98862.52
2018-12-06T21:49:31.647Z,98860.63
2018-12-06T21:52:00.637Z,98866.97
2018-12-06T21:54:29.495Z,98863.82
2018-12-06T21:56:58.273Z,98855.58
2018-12-06T21:59:27.139Z,98849.06
2018-12-06T22:02:05.720Z,98855.23
2018-12-06T22:04:34.583Z,98854.50
2018-12-06T22:07:03.528Z,98859.31
2018-12-06T22:09:32.410Z,98852.81
2018-12-06T22:12:01.233Z,98861.28
2018-12-06T22:14:30.068Z,98852.88
2018-12-06T22:16:58.862Z,98858.22
2018-12-06T22:19:27.764Z,98852.33
2018-12-06T22:21:56.654Z,98857.38
2018-12-06T22:24:25.430Z,98847.39
2018-12-06T22:26:54.334Z,98840.13
2018-12-06T22:29:23.078Z,98837.48
2018-12-06T22:31:51.944Z,98840.25
2018-12-06T22:34:20.695Z,98843.63
2018-12-06T22:36:49.644Z,98843.92
2018-12-06T22:39:18.632Z,98852.89
2018-12-06T22:41:47.451Z,98856.33
2018-12-06T22:44:16.346Z,98857.73
2018-12-06T22:46:45.145Z,98853.90
2018-12-06T22:49:14.111Z,98854.67
2018-12-06T22:51:42.966Z,98847.26
2018-12-06T22:54:12.007Z,98853.13
2018-12-06T22:56:40.841Z,98850.95
2018-12-06T22:59:09.778Z,98849.55
2018-12-06T23:01:40.981Z,98847.73
2018-12-06T23:04:10.247Z,98848.88
2018-12-06T23:06:39.301Z,98846.20
2018-12-06T23:09:09.826Z,98836.17
2018-12-06T23:11:39.448Z,98838.19
2018-12-06T23:14:08.399Z,98832.25
2018-12-06T23:16:37.534Z,98831.67
2018-12-06T23:19:06.630Z,98817.58
2018-12-06T23:21:35.519Z,98823.90
2018-12-06T23:24:04.410Z,98821.78
2018-12-06T23:26:33.295Z,98825.59
2018-12-06T23:29:02.111Z,98814.86
2018-12-06T23:31:30.948Z,98811.06
2018-12-06T23:33:59.842Z,98809.80
2018-12-06T23:36:28.719Z,98804.56
2018-12-06T23:38:57.567Z,98804.92
2018-12-06T23:41:26.536Z,98808.73
2018-12-06T23:43:55.373Z,98800.80
2018-12-06T23:46:24.316Z,98811.15
2018-12-06T23:48:53.107Z,98804.52
2018-12-06T23:51:40.119Z,98805.32
2018-12-06T23:54:08.927Z,98808.13
2018-12-06T23:56:37.779Z,98810.57
2018-12-06T23:59:06.592Z,98804.59
